Track Злобин Александр

Time Latitude Longitude Accuracy (66% radius in meters) Altitude (meters) Speed (km/hour) Bearing (degrees) Battery (%) GPS flag
10:06:08 60.370955 29.556387 8 78.995247062888 0 297.65560913086 86 1 delete
10:05:59 60.370955 29.556387 6 79.623644972537 0 297.65560913086 86 1 delete
10:05:56 60.370919 29.556556 8 80.207860472234 0 297.65560913086 86 1 delete
10:05:44 60.370919 29.556556 6 81.436885182155 0 297.65560913086 86 1 delete
10:05:35 60.370919 29.556556 8 82.902117735959 0 297.65560913086 86 1 delete
10:05:23 60.370919 29.556556 12 83.275512848166 0 297.65560913086 86 1 delete
10:05:17 60.370904 29.556604 6 83.53180629167 1.8379230499268 301.23114013672 86 1 delete
10:05:14 60.370881 29.556682 8 83.80843234399 1.8639615774155 296.39700317383 86 1 delete
10:05:11 60.370816 29.556759 8 83.808366858293 2.1917946338654 347.25524902344 86 1 delete
10:05:08 60.370768 29.556785 8 83.814430658054 0.95186197757721 7.2526345252991 86 1 delete
10:05:02 60.370701 29.556824 12 83.743512128269 0 302.5231628418 86 1 delete
10:04:59 60.370663 29.556971 8 83.722680565116 5.4715790748596 302.10189819336 86 1 delete
10:04:56 60.370600 29.557235 8 83.673857205249 5.7316875457764 283.77947998047 86 1 delete
10:04:53 60.370692 29.557459 6 85.12876598585 6.0351634025574 197.19738769531 86 1 delete
10:04:50 60.370868 29.557362 6 84.974886973324 6.5069146156311 145.09767150879 86 1 delete
10:04:47 60.370993 29.557152 6 83.800243905897 7.1119866371155 146.69664001465 86 1 delete
10:04:44 60.371105 29.557131 8 83.517389025149 0 190.89202880859 86 1 delete
10:04:41 60.371127 29.557298 8 83.046402554055 6.5290856361389 298.97509765625 86 1 delete
10:04:38 60.371024 29.557629 8 82.347951405259 6.9922614097595 294.08264160156 86 1 delete
10:04:35 60.370890 29.557994 6 81.739587827308 6.4359850883484 305.38909912109 86 1 delete
10:04:32 60.370736 29.558332 8 81.740115851143 6.4692192077637 316.26098632812 86 1 delete
10:04:29 60.370572 29.558475 12 85.268461279036 6.7854290008545 348.04949951172 86 1 delete
10:04:26 60.370333 29.558614 8 88.675623972327 4.2957124710083 332.34677124023 86 1 delete
10:04:23 60.370132 29.558690 12 88.578116815094 3.608172416687 20.446628570557 86 1 delete
10:04:20 60.370008 29.558625 12 88.876355563762 3.3872084617615 10.623301506042 86 1 delete
10:04:17 60.369869 29.558664 8 90.690797761582 3.3770208358765 351.85830688477 86 1 delete
10:04:14 60.369820 29.558659 8 90.787718979615 4.0023913383484 312.59994506836 86 1 delete
10:04:11 60.369725 29.558784 8 91.644104109342 4.1092472076416 347.38424682617 86 1 delete
10:04:08 60.369566 29.558868 8 92.137633554323 3.9372544288635 342.65542602539 86 1 delete
10:04:05 60.369459 29.558982 8 91.67032173301 3.941287279129 326.12396240234 86 1 delete
10:04:02 60.369398 29.559085 8 91.788126697613 4.0592956542969 345.36404418945 86 1 delete
10:03:59 60.369262 29.559206 8 91.294037005411 4.0965719223022 276.58422851562 86 1 delete
10:03:56 60.369231 29.559471 8 92.85138040523 3.7657704353333 287.82336425781 86 1 delete
10:03:53 60.369154 29.559713 8 95.099314190621 3.6187279224396 335.74838256836 86 1 delete
10:03:50 60.369029 29.559704 8 96.501730926999 3.2042880058289 6.9417200088501 86 1 delete
10:03:47 60.368913 29.559767 8 97.552484126603 2.6045246124268 307.75158691406 86 1 delete
10:03:44 60.368837 29.559896 12 97.877904868904 1.7579636573792 346.23089599609 86 1 delete
10:03:41 60.368791 29.559966 8 97.987809474819 0 303.35552978516 86 1 delete
10:03:38 60.368731 29.559968 8 98.292852982459 4.1422061920166 6.1502032279968 86 1 delete
10:03:35 60.368624 29.559872 8 98.232500758692 4.2262473106384 33.962619781494 86 1 delete
10:03:32 60.368506 29.559760 8 97.327111223216 4.397424697876 26.835289001465 86 1 delete
10:03:29 60.368382 29.559666 8 96.389635239745 4.4733533859253 27.591312408447 86 1 delete
10:03:26 60.368240 29.559535 8 95.68352946658 4.1935448646545 26.564607620239 86 1 delete
10:03:23 60.368114 29.559430 8 94.77151757174 4.023407459259 31.54801940918 86 1 delete
10:03:20 60.367974 29.559320 8 94.114483682147 4.0205063819885 9.9371843338013 86 1 delete
10:03:17 60.367871 29.559228 12 93.893902176179 4.1804575920105 36.441822052002 86 1 delete
10:03:14 60.367749 29.559197 8 93.160125256523 4.165997505188 2.4665677547455 86 1 delete
10:03:11 60.367615 29.559199 8 93.023288189763 4.1949501037598 359.1637878418 86 1 delete
10:03:08 60.367474 29.559192 6 92.499727104284 4.1406598091125 11.024731636047 86 1 delete
10:03:05 60.367342 29.559165 8 93.654275110899 4.0858044624329 5.0352916717529 86 1 delete